Terminal Aerodrome Forecast
Issued by NWS

Home | Current Version | Previous Version | Text Only | Print | Product List | Glossary On
Versions: 1 2 3 4 5 6 7 8 9 10 11 12
000
FTUS46 KPDT 302300
TAFYKM
TAF
KYKM 302340Z 3100/3124 VRB05KT P6SM SCT250
     FM310200 31010KT P6SM SKC
     FM311200 28008KT P6SM SKC
     FM311600 28006KT P6SM SCT250
     FM311900 14005KT P6SM FEW150 SCT250=

USA.gov is the U.S. government's official web portal to all federal, state and local government web resources and services.